createdAt,value
2023-05-04T00:00:50.537Z,15.35
2023-05-04T00:03:16.932Z,16.55
2023-05-04T00:05:43.381Z,15.40
2023-05-04T00:08:09.840Z,14.85
2023-05-04T00:10:36.167Z,15.23
2023-05-04T00:13:02.673Z,13.70
2023-05-04T00:15:30.292Z,14.73
2023-05-04T00:17:57.056Z,14.68
2023-05-04T00:20:23.430Z,13.82
2023-05-04T00:22:49.768Z,12.73
2023-05-04T00:25:16.258Z,13.23
2023-05-04T00:27:42.617Z,14.23
2023-05-04T00:30:11.181Z,17.55
2023-05-04T00:32:37.549Z,13.45
2023-05-04T00:35:04.220Z,15.38
2023-05-04T00:37:30.602Z,16.20
2023-05-04T00:39:57.954Z,14.15
2023-05-04T00:42:24.292Z,14.82
2023-05-04T00:44:50.651Z,16.25
2023-05-04T00:47:19.501Z,15.40
2023-05-04T00:49:46.417Z,14.60
2023-05-04T00:52:14.572Z,13.25
2023-05-04T00:54:46.565Z,14.85
2023-05-04T00:57:13.377Z,15.02
2023-05-04T00:59:39.770Z,13.57
2023-05-04T01:02:06.510Z,14.25
2023-05-04T01:04:32.964Z,14.35
2023-05-04T01:07:20.155Z,14.25
2023-05-04T01:10:02.107Z,12.18
2023-05-04T01:12:35.754Z,13.68
2023-05-04T01:15:03.494Z,14.75
2023-05-04T01:17:30.016Z,17.77
2023-05-04T01:19:56.475Z,18.27
2023-05-04T01:22:23.270Z,13.85
2023-05-04T01:24:50.623Z,18.90
2023-05-04T01:27:42.955Z,21.70
2023-05-04T01:30:18.941Z,21.33
2023-05-04T01:32:47.219Z,17.88
2023-05-04T01:35:14.017Z,18.75
2023-05-04T01:37:41.046Z,19.23
2023-05-04T01:40:08.427Z,15.02
2023-05-04T01:42:35.225Z,18.25
2023-05-04T01:45:01.867Z,15.95
2023-05-04T01:47:28.203Z,20.23
2023-05-04T01:49:54.586Z,13.43
2023-05-04T01:52:20.968Z,18.05
2023-05-04T01:54:47.445Z,15.75
2023-05-04T01:57:13.816Z,16.63
2023-05-04T01:59:40.164Z,17.25
2023-05-04T02:02:06.533Z,16.83
2023-05-04T02:04:33.868Z,17.05
2023-05-04T02:07:00.194Z,18.20
2023-05-04T02:09:29.647Z,14.70
2023-05-04T02:11:56.038Z,18.95
2023-05-04T02:14:22.496Z,18.10
2023-05-04T02:16:48.857Z,16.98
2023-05-04T02:19:15.316Z,19.02
2023-05-04T02:21:42.213Z,16.75
2023-05-04T02:24:08.764Z,18.13
2023-05-04T02:26:36.205Z,16.27
2023-05-04T02:29:06.034Z,19.40
2023-05-04T02:31:33.067Z,17.00
2023-05-04T02:34:00.593Z,15.95
2023-05-04T02:36:27.013Z,15.55
2023-05-04T02:38:54.774Z,18.92
2023-05-04T02:41:21.536Z,19.88
2023-05-04T02:43:47.930Z,16.83
2023-05-04T02:46:14.326Z,16.20
2023-05-04T02:48:40.738Z,16.40
2023-05-04T02:51:07.082Z,16.55
2023-05-04T02:53:33.407Z,17.50
2023-05-04T02:55:59.744Z,16.48
2023-05-04T02:58:26.236Z,17.13
2023-05-04T03:00:56.165Z,16.15
2023-05-04T03:03:22.590Z,14.57
2023-05-04T03:05:48.922Z,15.35
2023-05-04T03:08:15.701Z,15.60
2023-05-04T03:10:42.089Z,14.98
2023-05-04T03:13:08.542Z,15.32
2023-05-04T03:15:35.228Z,14.57
2023-05-04T03:18:01.647Z,14.30
2023-05-04T03:20:28.271Z,14.43
2023-05-04T03:22:54.668Z,13.68
2023-05-04T03:25:21.167Z,12.63
2023-05-04T03:27:47.611Z,13.63
2023-05-04T03:30:14.122Z,14.80
2023-05-04T03:32:40.822Z,14.10
2023-05-04T03:35:08.014Z,13.90
2023-05-04T03:37:34.387Z,14.63
2023-05-04T03:40:00.886Z,13.35
2023-05-04T03:42:27.237Z,13.38
2023-05-04T03:44:53.687Z,14.50
2023-05-04T03:47:20.042Z,14.15
2023-05-04T03:49:47.578Z,15.30
2023-05-04T03:52:13.902Z,13.55
2023-05-04T03:54:40.424Z,15.68
2023-05-04T03:57:06.744Z,11.57
2023-05-04T03:59:33.125Z,12.35
2023-05-04T04:02:00.285Z,13.52
2023-05-04T04:04:27.329Z,14.73
2023-05-04T04:06:53.828Z,12.90
2023-05-04T04:09:20.230Z,12.98
2023-05-04T04:11:47.254Z,12.40
2023-05-04T04:14:13.702Z,12.27
2023-05-04T04:16:40.296Z,13.60
2023-05-04T04:19:07.077Z,15.30
2023-05-04T04:21:33.556Z,13.23
2023-05-04T04:24:00.051Z,13.23
2023-05-04T04:26:26.833Z,12.20
2023-05-04T04:28:53.201Z,14.88
2023-05-04T04:31:20.377Z,14.43
2023-05-04T04:33:51.045Z,13.93
2023-05-04T04:36:18.201Z,12.52
2023-05-04T04:38:44.731Z,15.63
2023-05-04T04:41:11.657Z,12.93
2023-05-04T04:43:38.115Z,14.40
2023-05-04T04:46:05.335Z,16.23
2023-05-04T04:48:33.205Z,14.95
2023-05-04T04:50:59.838Z,17.23
2023-05-04T04:53:26.259Z,14.40
2023-05-04T04:55:53.972Z,16.52
2023-05-04T04:58:20.435Z,16.63
2023-05-04T05:00:47.507Z,15.85
2023-05-04T05:03:13.975Z,15.77
2023-05-04T05:05:40.428Z,13.70
2023-05-04T05:08:08.947Z,12.93
2023-05-04T05:10:35.363Z,12.93
2023-05-04T05:13:02.277Z,11.30
2023-05-04T05:15:28.905Z,10.90
2023-05-04T05:17:55.408Z,11.55
2023-05-04T05:20:24.083Z,12.70
2023-05-04T05:22:51.531Z,11.85
2023-05-04T05:25:18.979Z,10.55
2023-05-04T05:27:46.975Z,10.20
2023-05-04T05:30:14.586Z,9.95
2023-05-04T05:32:41.114Z,10.57
2023-05-04T05:35:08.269Z,9.70
2023-05-04T05:37:34.827Z,10.07
2023-05-04T05:40:01.249Z,10.20
2023-05-04T05:42:30.181Z,10.52
2023-05-04T05:44:56.572Z,9.38
2023-05-04T05:47:22.995Z,10.43
2023-05-04T05:49:49.398Z,10.40
2023-05-04T05:52:16.110Z,10.55
2023-05-04T05:54:42.635Z,9.90
2023-05-04T05:57:09.048Z,9.77
2023-05-04T05:59:35.393Z,9.88
2023-05-04T06:02:01.846Z,10.35
2023-05-04T06:04:28.284Z,9.70
2023-05-04T06:06:54.659Z,9.50
2023-05-04T06:09:21.066Z,14.07
2023-05-04T06:11:47.424Z,10.43
2023-05-04T06:14:13.745Z,9.93
2023-05-04T06:16:40.384Z,10.05
2023-05-04T06:19:07.242Z,10.10
2023-05-04T06:21:33.589Z,10.40
2023-05-04T06:23:59.952Z,10.57
2023-05-04T06:26:26.304Z,9.68
2023-05-04T06:28:52.711Z,8.35
2023-05-04T06:31:19.266Z,8.23
2023-05-04T06:33:45.760Z,10.63
2023-05-04T06:36:13.224Z,9.05
2023-05-04T06:38:39.611Z,8.75
2023-05-04T06:41:06.150Z,9.90
2023-05-04T06:43:32.945Z,21.13
2023-05-04T06:46:05.478Z,11.35
2023-05-04T06:48:31.908Z,8.85
2023-05-04T06:51:00.079Z,10.90
2023-05-04T06:53:28.892Z,9.07
2023-05-04T06:55:55.335Z,10.85
2023-05-04T06:58:21.862Z,10.30
2023-05-04T07:00:48.286Z,9.65
2023-05-04T07:03:14.724Z,11.07
2023-05-04T07:05:41.369Z,10.10
2023-05-04T07:08:09.628Z,10.43
2023-05-04T07:10:36.029Z,10.57
2023-05-04T07:13:02.515Z,12.35
2023-05-04T07:15:29.352Z,11.57
2023-05-04T07:17:55.801Z,10.13
2023-05-04T07:20:25.107Z,11.93
2023-05-04T07:22:59.034Z,8.88
2023-05-04T07:25:26.153Z,12.20
2023-05-04T07:27:53.184Z,9.05
2023-05-04T07:30:20.349Z,13.38
2023-05-04T07:32:47.183Z,11.48
2023-05-04T07:35:13.604Z,16.88
2023-05-04T07:37:39.920Z,11.82
2023-05-04T07:40:07.668Z,12.15
2023-05-04T07:42:34.529Z,12.05
2023-05-04T07:45:01.251Z,15.13
2023-05-04T07:47:27.938Z,11.40
2023-05-04T07:49:54.444Z,15.38
2023-05-04T07:52:20.763Z,14.20
2023-05-04T07:54:47.168Z,14.60
2023-05-04T07:57:13.479Z,15.45
2023-05-04T07:59:40.062Z,16.27
2023-05-04T08:02:06.561Z,12.57
2023-05-04T08:04:33.061Z,12.98
2023-05-04T08:06:59.558Z,14.65
2023-05-04T08:09:25.959Z,13.63
2023-05-04T08:11:52.439Z,11.43
2023-05-04T08:14:18.848Z,11.25
2023-05-04T08:16:45.279Z,16.10
2023-05-04T08:19:12.413Z,12.57
2023-05-04T08:21:40.315Z,11.05
2023-05-04T08:24:07.401Z,11.27
2023-05-04T08:26:37.027Z,13.13
2023-05-04T08:29:08.274Z,10.13
2023-05-04T08:31:35.233Z,14.38
2023-05-04T08:34:01.687Z,11.40
2023-05-04T08:36:28.061Z,10.02
2023-05-04T08:38:54.492Z,11.10
2023-05-04T08:41:21.188Z,13.30
2023-05-04T08:43:49.239Z,9.65
2023-05-04T08:46:16.724Z,8.00
2023-05-04T08:48:44.792Z,9.68
2023-05-04T08:51:11.498Z,12.20
2023-05-04T08:53:41.629Z,12.50
2023-05-04T08:56:09.437Z,9.45
2023-05-04T08:58:38.145Z,13.13
2023-05-04T09:01:07.216Z,8.13
2023-05-04T09:03:34.231Z,9.65
2023-05-04T09:06:00.886Z,7.90
2023-05-04T09:08:27.446Z,9.27
2023-05-04T09:10:53.788Z,9.45
2023-05-04T09:13:20.708Z,9.70
2023-05-04T09:15:55.213Z,11.15
2023-05-04T09:18:21.890Z,10.88
2023-05-04T09:20:49.191Z,10.32
2023-05-04T09:23:17.957Z,15.63
2023-05-04T09:25:52.441Z,9.55
2023-05-04T09:30:48.746Z,11.15
2023-05-04T09:33:26.398Z,10.77
2023-05-04T09:35:52.958Z,12.73
2023-05-04T09:38:29.424Z,11.95
2023-05-04T09:40:56.013Z,10.10
2023-05-04T09:43:24.314Z,10.75
2023-05-04T09:45:51.324Z,9.85
2023-05-04T09:48:20.539Z,12.27
2023-05-04T09:50:58.304Z,10.32
2023-05-04T09:53:29.694Z,11.32
2023-05-04T09:56:00.704Z,10.48
2023-05-04T09:58:30.545Z,9.70
2023-05-04T10:00:58.141Z,11.38
2023-05-04T10:03:26.755Z,11.88
2023-05-04T10:05:54.131Z,10.93
2023-05-04T10:08:21.079Z,9.25
2023-05-04T10:10:48.138Z,9.32
2023-05-04T10:13:14.700Z,8.25
2023-05-04T10:15:49.281Z,12.68
2023-05-04T10:18:28.913Z,8.70
2023-05-04T10:21:24.258Z,14.27
2023-05-04T10:24:28.636Z,8.10
2023-05-04T10:27:15.947Z,11.60
2023-05-04T10:29:43.007Z,8.38
2023-05-04T10:32:27.998Z,11.02
2023-05-04T10:35:05.484Z,12.20
2023-05-04T10:37:32.468Z,13.75
2023-05-04T10:39:58.813Z,13.15
2023-05-04T10:42:25.168Z,9.13
2023-05-04T10:44:55.552Z,10.43
2023-05-04T10:47:29.799Z,9.45
2023-05-04T10:52:44.469Z,15.02
2023-05-04T10:55:11.490Z,13.00
2023-05-04T10:57:51.642Z,11.43
2023-05-04T11:00:18.460Z,9.30
2023-05-04T11:02:47.232Z,9.85
2023-05-04T11:05:18.175Z,14.30
2023-05-04T11:07:44.945Z,14.07
2023-05-04T11:10:25.511Z,11.32
2023-05-04T11:12:54.975Z,12.50
2023-05-04T11:15:21.506Z,15.10
2023-05-04T11:17:49.387Z,14.77
2023-05-04T11:20:25.006Z,10.38
2023-05-04T11:22:52.827Z,18.35
2023-05-04T11:25:29.795Z,15.48
2023-05-04T11:27:58.028Z,14.63
2023-05-04T11:30:32.680Z,9.85
2023-05-04T11:33:00.435Z,15.75
2023-05-04T11:35:27.268Z,14.40
2023-05-04T11:37:53.684Z,34.30
2023-05-04T11:40:25.466Z,16.23
2023-05-04T11:42:55.377Z,17.85
2023-05-04T11:45:27.002Z,9.88
2023-05-04T11:47:56.459Z,14.40
2023-05-04T11:50:23.786Z,11.07
2023-05-04T11:52:50.219Z,12.43
2023-05-04T11:55:33.278Z,16.80
2023-05-04T11:58:00.969Z,15.77
2023-05-04T12:00:46.833Z,13.98
2023-05-04T12:03:24.559Z,15.82
2023-05-04T12:05:56.621Z,11.20
2023-05-04T12:08:27.708Z,11.25
2023-05-04T12:11:09.219Z,15.48
2023-05-04T12:13:36.317Z,13.82
2023-05-04T12:16:28.938Z,9.73
2023-05-04T12:19:10.848Z,14.85
2023-05-04T12:21:38.105Z,11.48
2023-05-04T12:24:05.540Z,8.73
2023-05-04T12:26:32.095Z,13.70
2023-05-04T12:28:58.658Z,11.25
2023-05-04T12:31:25.528Z,8.80
2023-05-04T12:33:52.560Z,11.07
2023-05-04T12:36:19.152Z,13.57
2023-05-04T12:38:46.134Z,12.23
2023-05-04T12:41:12.686Z,14.60
2023-05-04T12:43:39.135Z,13.98
2023-05-04T12:46:05.857Z,11.35
2023-05-04T12:48:32.838Z,14.02
2023-05-04T12:51:01.114Z,11.93
2023-05-04T12:53:30.033Z,13.15
2023-05-04T12:55:57.208Z,11.85
2023-05-04T12:58:23.548Z,14.63
2023-05-04T13:00:49.962Z,15.18
2023-05-04T13:03:18.051Z,11.40
2023-05-04T13:05:46.454Z,10.07
2023-05-04T13:08:13.133Z,10.38
2023-05-04T13:10:39.489Z,9.68
2023-05-04T13:13:06.448Z,11.55
2023-05-04T13:15:33.816Z,11.98
2023-05-04T13:18:00.583Z,10.10
2023-05-04T13:20:27.165Z,13.93
2023-05-04T13:22:54.190Z,15.93
2023-05-04T13:25:22.165Z,13.40
2023-05-04T13:27:48.842Z,14.95
2023-05-04T13:30:20.244Z,14.32
2023-05-04T13:32:46.629Z,13.18
2023-05-04T13:35:13.279Z,13.88
2023-05-04T13:37:39.584Z,13.73
2023-05-04T13:40:06.419Z,14.43
2023-05-04T13:42:35.655Z,14.18
2023-05-04T13:45:03.430Z,14.50
2023-05-04T13:47:29.818Z,14.70
2023-05-04T13:49:56.158Z,13.60
2023-05-04T13:52:22.567Z,14.75
2023-05-04T13:54:49.396Z,12.60
2023-05-04T13:57:15.832Z,13.85
2023-05-04T13:59:48.780Z,11.75
2023-05-04T14:02:24.972Z,17.65
2023-05-04T14:04:51.634Z,15.70
2023-05-04T14:07:17.982Z,14.15
2023-05-04T14:09:44.703Z,14.00
2023-05-04T14:12:11.059Z,18.38
2023-05-04T14:14:37.403Z,18.85
2023-05-04T14:17:04.074Z,13.52
2023-05-04T14:19:30.460Z,13.68
2023-05-04T14:21:56.793Z,14.20
2023-05-04T14:24:24.845Z,14.88
2023-05-04T14:26:51.781Z,12.00
2023-05-04T14:29:18.122Z,11.85
2023-05-04T14:31:44.516Z,12.20
2023-05-04T14:34:10.969Z,12.70
2023-05-04T14:36:37.372Z,8.45
2023-05-04T14:39:03.818Z,8.07
2023-05-04T14:41:33.694Z,8.40
2023-05-04T14:44:00.386Z,9.40
2023-05-04T14:46:29.051Z,11.10
2023-05-04T14:48:56.046Z,10.70
2023-05-04T14:51:23.607Z,11.18
2023-05-04T14:53:50.028Z,10.18
2023-05-04T14:56:16.391Z,9.45
2023-05-04T14:58:42.757Z,9.70
2023-05-04T15:01:09.369Z,9.25
2023-05-04T15:03:36.125Z,8.50
2023-05-04T15:06:03.491Z,8.57
2023-05-04T15:08:30.089Z,8.10
2023-05-04T15:10:59.257Z,10.50
2023-05-04T15:13:26.109Z,7.20
2023-05-04T15:15:52.917Z,8.88
2023-05-04T15:18:21.155Z,7.40
2023-05-04T15:20:47.525Z,8.05
2023-05-04T15:23:13.867Z,7.85
2023-05-04T15:25:40.956Z,7.47
2023-05-04T15:28:10.603Z,8.25
2023-05-04T15:30:37.648Z,8.48
2023-05-04T15:33:05.321Z,8.90
2023-05-04T15:35:33.172Z,8.98
2023-05-04T15:38:00.834Z,6.65
2023-05-04T15:40:27.850Z,10.82
2023-05-04T15:42:54.305Z,7.65
2023-05-04T15:45:21.367Z,7.90
2023-05-04T15:47:47.909Z,8.40
2023-05-04T15:50:14.360Z,7.40
2023-05-04T15:52:40.729Z,7.50
2023-05-04T15:55:23.684Z,7.55
2023-05-04T15:57:51.700Z,7.38
2023-05-04T16:00:18.442Z,7.63
2023-05-04T16:02:44.890Z,9.57
2023-05-04T16:05:11.326Z,7.70
2023-05-04T16:07:37.660Z,8.23
2023-05-04T16:10:05.079Z,7.22
2023-05-04T16:12:32.042Z,9.68
2023-05-04T16:14:58.580Z,7.75
2023-05-04T16:17:25.073Z,9.27
2023-05-04T16:19:51.738Z,7.22
2023-05-04T16:22:18.079Z,7.70
2023-05-04T16:24:44.436Z,9.27
2023-05-04T16:27:10.807Z,8.25
2023-05-04T16:29:37.180Z,8.45
2023-05-04T16:32:03.649Z,7.70
2023-05-04T16:34:30.072Z,8.02
2023-05-04T16:36:56.476Z,7.18
2023-05-04T16:39:30.046Z,7.57
2023-05-04T16:41:57.274Z,7.82
2023-05-04T16:44:24.108Z,7.20
2023-05-04T16:46:51.546Z,6.65
2023-05-04T16:49:18.411Z,6.78
2023-05-04T16:51:44.851Z,6.05
2023-05-04T16:54:11.397Z,8.95
2023-05-04T16:56:37.787Z,7.72
2023-05-04T16:59:04.448Z,7.72
2023-05-04T17:01:30.845Z,8.15
2023-05-04T17:03:57.758Z,13.23
2023-05-04T17:06:24.412Z,8.75
2023-05-04T17:08:50.839Z,8.82
2023-05-04T17:11:17.260Z,8.77
2023-05-04T17:13:43.718Z,9.27
2023-05-04T17:16:10.532Z,10.48
2023-05-04T17:18:37.048Z,11.68
2023-05-04T17:21:03.540Z,11.50
2023-05-04T17:23:29.960Z,9.82
2023-05-04T17:25:56.913Z,10.88
2023-05-04T17:28:23.549Z,9.80
2023-05-04T17:30:49.888Z,9.60
2023-05-04T17:33:16.331Z,10.05
2023-05-04T17:35:42.679Z,8.73
2023-05-04T17:38:09.061Z,9.43
2023-05-04T17:40:35.463Z,9.15
2023-05-04T17:43:01.892Z,8.80
2023-05-04T17:45:28.363Z,7.85
2023-05-04T17:47:54.801Z,7.45
2023-05-04T17:50:21.456Z,7.03
2023-05-04T17:52:55.391Z,7.10
2023-05-04T17:55:25.882Z,7.90
2023-05-04T17:57:53.864Z,8.30
2023-05-04T18:00:21.006Z,5.93
2023-05-04T18:02:47.501Z,7.75
2023-05-04T18:05:14.146Z,7.32
2023-05-04T18:07:40.617Z,16.15
2023-05-04T18:10:07.718Z,7.00
2023-05-04T18:12:35.666Z,7.38
2023-05-04T18:15:07.959Z,10.50
2023-05-04T18:17:38.193Z,10.10
2023-05-04T18:20:07.304Z,8.00
2023-05-04T18:22:34.261Z,7.97
2023-05-04T18:25:01.325Z,7.43
2023-05-04T18:27:33.313Z,6.85
2023-05-04T18:30:00.705Z,7.97
2023-05-04T18:32:27.514Z,9.25
2023-05-04T18:34:54.595Z,10.32
2023-05-04T18:37:21.558Z,10.93
2023-05-04T18:39:48.025Z,10.77
2023-05-04T18:42:14.524Z,10.65
2023-05-04T18:44:40.902Z,10.10
2023-05-04T18:47:08.001Z,12.52
2023-05-04T18:49:34.385Z,9.70
2023-05-04T18:52:01.529Z,13.00
2023-05-04T18:54:31.575Z,9.50
2023-05-04T18:56:58.714Z,9.48
2023-05-04T18:59:25.732Z,8.15
2023-05-04T19:01:52.894Z,9.23
2023-05-04T19:04:19.417Z,9.50
2023-05-04T19:06:47.517Z,8.63
2023-05-04T19:09:14.437Z,10.70
2023-05-04T19:11:41.033Z,13.32
2023-05-04T19:14:07.908Z,10.20
2023-05-04T19:16:34.484Z,12.75
2023-05-04T19:19:00.792Z,10.40
2023-05-04T19:21:28.309Z,11.52
2023-05-04T19:23:54.871Z,8.40
2023-05-04T19:26:21.766Z,8.10
2023-05-04T19:28:48.557Z,8.95
2023-05-04T19:31:15.857Z,8.50
2023-05-04T19:33:48.452Z,7.82
2023-05-04T19:36:16.274Z,7.70
2023-05-04T19:38:42.949Z,7.00
2023-05-04T19:41:09.510Z,6.55
2023-05-04T19:43:38.392Z,6.10
2023-05-04T19:46:04.846Z,7.00
2023-05-04T19:48:31.420Z,7.68
2023-05-04T19:50:57.877Z,8.30
2023-05-04T19:53:24.758Z,8.57
2023-05-04T19:55:51.369Z,10.77
2023-05-04T19:58:17.990Z,11.40
2023-05-04T20:00:44.444Z,13.38
2023-05-04T20:03:10.961Z,14.00
2023-05-04T20:05:38.397Z,13.85
2023-05-04T20:08:05.464Z,15.35
2023-05-04T20:10:32.010Z,10.70
2023-05-04T20:12:58.486Z,13.00
2023-05-04T20:15:25.129Z,11.75
2023-05-04T20:17:52.072Z,12.73
2023-05-04T20:20:20.562Z,11.70
2023-05-04T20:22:49.002Z,10.50
2023-05-04T20:25:15.514Z,10.45
2023-05-04T20:27:42.456Z,10.75
2023-05-04T20:30:09.887Z,11.65
2023-05-04T20:32:36.420Z,13.40
2023-05-04T20:35:03.205Z,11.80
2023-05-04T20:37:29.803Z,12.63
2023-05-04T20:39:56.530Z,11.18
2023-05-04T20:42:23.056Z,9.20
2023-05-04T20:44:49.445Z,8.68
2023-05-04T20:47:15.837Z,8.88
2023-05-04T20:49:42.234Z,9.95
2023-05-04T20:52:08.629Z,9.15
2023-05-04T20:54:34.997Z,9.30
2023-05-04T20:57:01.561Z,8.95
2023-05-04T20:59:28.419Z,7.90
2023-05-04T21:01:54.985Z,9.60
2023-05-04T21:04:21.970Z,9.20
2023-05-04T21:06:48.554Z,10.45
2023-05-04T21:09:15.438Z,7.80
2023-05-04T21:11:41.829Z,11.18
2023-05-04T21:14:08.333Z,10.20
2023-05-04T21:16:34.717Z,10.38
2023-05-04T21:19:01.041Z,11.05
2023-05-04T21:21:27.438Z,9.98
2023-05-04T21:23:53.782Z,11.35
2023-05-04T21:26:20.200Z,8.45
2023-05-04T21:28:46.574Z,12.13
2023-05-04T21:31:12.951Z,9.77
2023-05-04T21:33:39.362Z,12.82
2023-05-04T21:36:15.437Z,17.20
2023-05-04T21:38:42.506Z,15.60
2023-05-04T21:41:16.413Z,13.57
2023-05-04T21:43:43.344Z,16.33
2023-05-04T21:46:11.473Z,20.15
2023-05-04T21:48:37.835Z,23.67
2023-05-04T21:51:04.366Z,18.42
2023-05-04T21:53:33.322Z,13.07
2023-05-04T21:56:07.488Z,13.65
2023-05-04T21:58:34.463Z,12.77
2023-05-04T22:01:00.920Z,14.13
2023-05-04T22:03:28.501Z,12.85
2023-05-04T22:05:57.468Z,14.30
2023-05-04T22:08:24.962Z,14.02
2023-05-04T22:10:52.608Z,14.38
2023-05-04T22:13:19.135Z,17.77
2023-05-04T22:15:50.028Z,11.90
2023-05-04T22:18:17.142Z,14.43
2023-05-04T22:20:43.548Z,13.10
2023-05-04T22:23:10.522Z,11.52
2023-05-04T22:25:36.843Z,14.65
2023-05-04T22:28:03.430Z,15.70
2023-05-04T22:30:29.847Z,17.40
2023-05-04T22:32:56.949Z,20.67
2023-05-04T22:35:23.453Z,19.90
2023-05-04T22:37:50.730Z,16.20
2023-05-04T22:40:17.394Z,21.33
2023-05-04T22:42:46.697Z,17.20
2023-05-04T22:45:14.702Z,16.48
2023-05-04T22:47:41.811Z,20.73
2023-05-04T22:50:09.171Z,18.63
2023-05-04T22:52:35.992Z,15.95
2023-05-04T22:55:02.406Z,18.42
2023-05-04T22:57:28.783Z,17.38
2023-05-04T22:59:55.229Z,20.70
2023-05-04T23:02:21.752Z,20.15
2023-05-04T23:04:48.268Z,21.38
2023-05-04T23:07:14.725Z,20.08
2023-05-04T23:09:45.422Z,22.10
2023-05-04T23:12:12.670Z,22.33
2023-05-04T23:14:39.012Z,20.33
2023-05-04T23:17:05.657Z,19.02
2023-05-04T23:19:32.578Z,18.35
2023-05-04T23:21:59.059Z,14.90
2023-05-04T23:24:25.579Z,14.52
2023-05-04T23:26:52.311Z,13.63
2023-05-04T23:29:19.606Z,13.52
2023-05-04T23:31:46.282Z,15.95
2023-05-04T23:34:13.394Z,16.48
2023-05-04T23:36:39.781Z,18.48
2023-05-04T23:39:06.309Z,17.38
2023-05-04T23:41:32.662Z,17.02
2023-05-04T23:43:59.464Z,18.15
2023-05-04T23:46:25.973Z,19.20
2023-05-04T23:48:52.404Z,16.52
2023-05-04T23:51:19.206Z,17.17
2023-05-04T23:53:45.523Z,15.30
2023-05-04T23:56:12.921Z,15.30
2023-05-04T23:58:39.396Z,16.80
